Terminal Aerodrome Forecast
Issued by NWS

Home | Current Version | Previous Version | Text Only | Print | Product List | Glossary On
Versions: 1 2 3 4 5 6 7 8 9 10 11 12 13
000
FTUS46 KEKA 291100
TAFUKI
TAF
KUKI 291124Z 2912/3012 VRB03KT P6SM FEW250
     FM292100 32008KT P6SM SCT250
     FM300200 35005KT P6SM SCT250
     FM300500 00000KT P6SM FEW250=

USA.gov is the U.S. government's official web portal to all federal, state and local government web resources and services.